Time;durP1;ratioP1;P1;durP2;ratioP2;P2;SDS_P1;SDS_P2;PMS_P1;PMS_P2;Temp;Humidity;BMP_temperature;BMP_pressure;BME280_temperature;BME280_humidity;BME280_pressure;Samples;Min_cycle;Max_cycle;Signal;HPM_P1;HPM_P2
2022/09/12 00:01:42;;;;;;;14.93;6.40;;;;;;;;;;4939067;28;20056;-67
2022/09/12 00:04:12;;;;;;;15.68;6.55;;;;;;;;;;4962271;28;20055;-67
2022/09/12 00:06:42;;;;;;;17.08;7.15;;;;;;;;;;4962068;28;20066;-67
2022/09/12 00:09:14;;;;;;;13.52;6.75;;;;;;;;;;4932947;28;20073;-67
2022/09/12 00:11:46;;;;;;;16.55;7.07;;;;;;;;;;4971787;28;20517;-67
2022/09/12 00:14:18;;;;;;;17.23;7.28;;;;;;;;;;4983372;28;20057;-66
2022/09/12 00:16:48;;;;;;;17.25;6.90;;;;;;;;;;4992981;28;20434;-67
2022/09/12 00:19:18;;;;;;;15.15;6.55;;;;;;;;;;4973095;28;20430;-66
2022/09/12 00:21:48;;;;;;;21.10;8.13;;;;;;;;;;4973287;28;20055;-67
2022/09/12 00:24:19;;;;;;;19.00;7.80;;;;;;;;;;4973641;28;20063;-66
2022/09/12 00:26:49;;;;;;;18.50;7.75;;;;;;;;;;4973236;28;20055;-67
2022/09/12 00:29:21;;;;;;;18.15;7.82;;;;;;;;;;4986619;28;20054;-66
2022/09/12 00:31:51;;;;;;;14.20;5.93;;;;;;;;;;4987438;28;20050;-68
2022/09/12 00:34:22;;;;;;;17.83;7.05;;;;;;;;;;5002894;28;20050;-69
2022/09/12 00:36:53;;;;;;;19.25;7.65;;;;;;;;;;4956923;28;20039;-69
2022/09/12 00:39:22;;;;;;;19.67;7.93;;;;;;;;;;4956735;28;20057;-69
2022/09/12 00:41:54;;;;;;;20.95;8.18;;;;;;;;;;4967384;28;20046;-69
2022/09/12 00:44:24;;;;;;;19.05;7.28;;;;;;;;;;4972731;28;20054;-67
2022/09/12 00:47:00;;;;;;;23.48;8.40;;;;;;;;;;4972857;28;20070;-67
2022/09/12 00:49:38;;;;;;;18.30;8.00;;;;;;;;;;4915143;29;20075;-67
2022/09/12 00:52:19;;;;;;;16.80;7.80;;;;;;;;;;4896310;29;20401;-66
2022/09/12 00:54:53;;;;;;;17.10;7.60;;;;;;;;;;4896334;29;20049;-65
2022/09/12 00:57:27;;;;;;;18.48;7.18;;;;;;;;;;4909009;29;20056;-66
2022/09/12 01:00:15;;;;;;;18.38;7.80;;;;;;;;;;4877184;29;20060;-66
2022/09/12 01:02:54;;;;;;;16.55;7.30;;;;;;;;;;4858810;29;20418;-66
2022/09/12 01:05:24;;;;;;;;;;;;;;;;;;4844314;29;20068;-66
2022/09/12 01:07:56;;;;;;;17.75;7.00;;;;;;;;;;4858802;29;19931;-66
2022/09/12 01:10:27;;;;;;;18.13;7.05;;;;;;;;;;4875279;29;20057;-66
2022/09/12 01:12:58;;;;;;;19.63;8.38;;;;;;;;;;4877524;29;20049;-66
2022/09/12 01:15:28;;;;;;;18.02;7.72;;;;;;;;;;4893835;29;20056;-67
2022/09/12 01:18:30;;;;;;;18.40;7.72;;;;;;;;;;4896036;29;20052;-66
2022/09/12 01:21:03;;;;;;;20.02;8.23;;;;;;;;;;4895872;29;20544;-67
2022/09/12 01:23:36;;;;;;;18.85;7.63;;;;;;;;;;4880282;29;20060;-66
2022/09/12 01:26:43;;;;;;;19.77;7.50;;;;;;;;;;4885684;29;20169;-66
2022/09/12 01:29:32;;;;;;;17.38;7.65;;;;;;;;;;4962964;28;20065;-66
2022/09/12 01:32:36;;;;;;;18.75;7.63;;;;;;;;;;4991546;28;20058;-66
2022/09/12 01:35:21;;;;;;;16.92;7.97;;;;;;;;;;4991429;28;20063;-66
2022/09/12 01:38:11;;;;;;;20.02;7.45;;;;;;;;;;4987870;28;20062;-66
2022/09/12 01:41:29;;;;;;;17.42;8.07;;;;;;;;;;4995901;28;20062;-66
2022/09/12 01:44:22;;;;;;;15.82;7.22;;;;;;;;;;4933313;29;20055;-67
2022/09/12 01:47:09;;;;;;;20.80;7.82;;;;;;;;;;4933445;29;20056;-66
2022/09/12 01:50:02;;;;;;;17.90;7.60;;;;;;;;;;4917693;29;20488;-66
2022/09/12 01:52:41;;;;;;;21.20;7.75;;;;;;;;;;4918038;29;20504;-66
2022/09/12 01:55:19;;;;;;;18.40;8.43;;;;;;;;;;4913781;29;20060;-66
2022/09/12 01:58:04;;;;;;;18.55;7.93;;;;;;;;;;4914330;29;20075;-66
2022/09/12 02:00:44;;;;;;;17.92;7.43;;;;;;;;;;4909942;29;20421;-66
2022/09/12 02:03:19;;;;;;;18.35;8.07;;;;;;;;;;4895330;29;20433;-66
2022/09/12 02:06:13;;;;;;;17.80;7.85;;;;;;;;;;4895140;29;20057;-66
2022/09/12 02:08:52;;;;;;;17.98;7.22;;;;;;;;;;4895175;29;20057;-66
2022/09/12 02:11:24;;;;;;;19.15;7.70;;;;;;;;;;4910360;29;20047;-66
2022/09/12 02:14:01;;;;;;;17.08;6.97;;;;;;;;;;4895067;29;20521;-66
2022/09/12 02:16:38;;;;;;;16.98;6.97;;;;;;;;;;4894750;29;20052;-66
2022/09/12 02:19:22;;;;;;;18.85;7.97;;;;;;;;;;4923199;29;20055;-66
2022/09/12 02:21:59;;;;;;;16.10;6.90;;;;;;;;;;4963755;28;20062;-67
2022/09/12 02:24:38;;;;;;;18.38;7.63;;;;;;;;;;4971220;28;20062;-66
2022/09/12 02:27:41;;;;;;;16.98;6.63;;;;;;;;;;4971432;28;20068;-66
2022/09/12 02:30:16;;;;;;;16.05;7.30;;;;;;;;;;4951843;29;20047;-67
2022/09/12 02:33:00;;;;;;;18.52;7.40;;;;;;;;;;4947227;29;20160;-66
2022/09/12 02:35:48;;;;;;;17.85;7.03;;;;;;;;;;4932831;29;20056;-66
2022/09/12 02:38:43;;;;;;;15.52;6.47;;;;;;;;;;4942778;29;20055;-66
2022/09/12 02:41:19;;;;;;;14.90;6.10;;;;;;;;;;4951546;29;20574;-66
2022/09/12 02:43:51;;;;;;;20.30;6.30;;;;;;;;;;4951631;29;20083;-66
2022/09/12 02:46:38;;;;;;;;;;;;;;;;;;4936010;29;20059;-66
2022/09/12 02:49:09;;;;;;;15.18;6.35;;;;;;;;;;4913473;29;19944;-66
2022/09/12 02:51:39;;;;;;;16.70;7.10;;;;;;;;;;4913241;29;20064;-66
2022/09/12 02:54:11;;;;;;;16.92;6.70;;;;;;;;;;4928735;29;20540;-66
2022/09/12 02:56:43;;;;;;;15.05;6.55;;;;;;;;;;4954523;28;20058;-66
2022/09/12 02:59:18;;;;;;;15.82;6.85;;;;;;;;;;4970991;28;20089;-66
2022/09/12 03:01:57;;;;;;;18.27;7.53;;;;;;;;;;4970532;28;20055;-66
2022/09/12 03:04:58;;;;;;;17.33;6.70;;;;;;;;;;4970542;28;20073;-67
2022/09/12 03:08:05;;;;;;;15.48;6.82;;;;;;;;;;4990205;28;20054;-67
2022/09/12 03:11:19;;;;;;;17.52;6.50;;;;;;;;;;5011308;28;20053;-66
2022/09/12 03:14:27;;;;;;;15.65;6.60;;;;;;;;;;4996447;28;20061;-66
2022/09/12 03:17:18;;;;;;;16.50;6.57;;;;;;;;;;5008921;28;20053;-66
2022/09/12 03:20:20;;;;;;;17.30;7.40;;;;;;;;;;5009422;28;20073;-66
2022/09/12 03:22:58;;;;;;;17.10;6.53;;;;;;;;;;4963983;28;20079;-66
2022/09/12 03:25:35;;;;;;;19.20;6.63;;;;;;;;;;5028950;28;20050;-66
2022/09/12 03:28:14;;;;;;;17.23;7.45;;;;;;;;;;5028891;28;20057;-66
2022/09/12 03:30:47;;;;;;;17.40;6.78;;;;;;;;;;5029010;28;20049;-66
2022/09/12 03:33:20;;;;;;;16.33;6.10;;;;;;;;;;5029137;28;20054;-67
2022/09/12 03:35:51;;;;;;;18.27;6.68;;;;;;;;;;5028878;28;20436;-66
2022/09/12 03:38:22;;;;;;;14.27;6.20;;;;;;;;;;4980089;28;20049;-66
2022/09/12 03:40:52;;;;;;;17.70;6.85;;;;;;;;;;5028874;28;20064;-66
2022/09/12 03:43:22;;;;;;;14.75;6.20;;;;;;;;;;4979775;28;20050;-66
2022/09/12 03:45:52;;;;;;;17.60;6.38;;;;;;;;;;4976238;28;20057;-66
2022/09/12 03:48:22;;;;;;;17.48;5.93;;;;;;;;;;4976259;28;20057;-66
2022/09/12 03:50:53;;;;;;;13.52;5.07;;;;;;;;;;5008675;28;20465;-67
2022/09/12 03:53:23;;;;;;;14.50;5.88;;;;;;;;;;4992351;28;20160;-66
2022/09/12 03:55:53;;;;;;;16.85;5.85;;;;;;;;;;5028528;28;20061;-67
2022/09/12 03:58:24;;;;;;;16.02;6.53;;;;;;;;;;5028619;28;20406;-67
2022/09/12 04:00:54;;;;;;;13.68;5.50;;;;;;;;;;5008864;28;20057;-67
2022/09/12 04:03:25;;;;;;;16.52;6.22;;;;;;;;;;5008516;28;20053;-66
2022/09/12 04:05:57;;;;;;;13.63;5.25;;;;;;;;;;5009140;28;20049;-67
2022/09/12 04:08:27;;;;;;;13.52;5.80;;;;;;;;;;5009107;28;20058;-66
2022/09/12 04:11:06;;;;;;;13.30;5.03;;;;;;;;;;4989205;28;20049;-67
2022/09/12 04:13:37;;;;;;;14.82;5.20;;;;;;;;;;4950460;29;20562;-66
2022/09/12 04:16:08;;;;;;;12.35;5.55;;;;;;;;;;4918619;29;20056;-66
2022/09/12 04:18:39;;;;;;;12.05;5.25;;;;;;;;;;4903140;29;20059;-66
2022/09/12 04:21:14;;;;;;;13.60;5.70;;;;;;;;;;4903033;29;20062;-66
2022/09/12 04:23:45;;;;;;;12.70;5.47;;;;;;;;;;4965132;28;20062;-66
2022/09/12 04:26:16;;;;;;;14.10;5.50;;;;;;;;;;4973499;28;20062;-66
2022/09/12 04:28:48;;;;;;;13.65;5.07;;;;;;;;;;4941204;28;20050;-66
2022/09/12 04:31:22;;;;;;;12.40;6.30;;;;;;;;;;4900202;29;20415;-66
2022/09/12 04:34:00;;;;;;;12.32;5.40;;;;;;;;;;4915557;29;20059;-66
2022/09/12 04:36:30;;;;;;;11.80;4.72;;;;;;;;;;4896728;29;20065;-66
2022/09/12 04:39:02;;;;;;;15.98;4.93;;;;;;;;;;4911224;29;20052;-66
2022/09/12 04:41:36;;;;;;;16.02;4.93;;;;;;;;;;4953927;29;20066;-66
2022/09/12 04:44:11;;;;;;;12.43;5.28;;;;;;;;;;4953760;29;20070;-66
2022/09/12 04:46:44;;;;;;;11.55;4.82;;;;;;;;;;4953859;29;20099;-66
2022/09/12 04:49:16;;;;;;;12.73;5.57;;;;;;;;;;4968112;28;20062;-66
2022/09/12 04:51:46;;;;;;;13.18;5.30;;;;;;;;;;5001953;28;20050;-66
2022/09/12 04:54:19;;;;;;;12.38;4.88;;;;;;;;;;4995243;28;20050;-66
2022/09/12 04:56:49;;;;;;;;;;;;;;;;;;5012247;28;20050;-66
2022/09/12 04:59:20;;;;;;;12.23;4.63;;;;;;;;;;5011744;28;19972;-66
2022/09/12 05:01:51;;;;;;;12.45;4.28;;;;;;;;;;5011937;28;20058;-66
2022/09/12 05:04:22;;;;;;;10.50;3.97;;;;;;;;;;4991646;28;20069;-66
2022/09/12 05:06:52;;;;;;;13.25;4.63;;;;;;;;;;4953311;29;20059;-66
2022/09/12 05:09:21;;;;;;;11.45;4.30;;;;;;;;;;4940353;29;20056;-66
2022/09/12 05:11:52;;;;;;;10.48;4.43;;;;;;;;;;4914483;29;20103;-66
2022/09/12 05:14:37;;;;;;;11.82;4.88;;;;;;;;;;4966947;28;20050;-66
2022/09/12 05:17:08;;;;;;;11.35;4.55;;;;;;;;;;4983082;28;20058;-66
2022/09/12 05:19:38;;;;;;;13.77;4.07;;;;;;;;;;5011314;28;20062;-66
2022/09/12 05:22:08;;;;;;;10.25;4.63;;;;;;;;;;5011666;28;20061;-66
2022/09/12 05:24:42;;;;;;;11.10;4.75;;;;;;;;;;4991568;28;20051;-66
2022/09/12 05:27:18;;;;;;;13.48;5.30;;;;;;;;;;4959477;28;20058;-66
2022/09/12 05:29:49;;;;;;;16.05;4.88;;;;;;;;;;4991691;28;20061;-66
2022/09/12 05:32:19;;;;;;;12.40;4.38;;;;;;;;;;4991770;28;20057;-66
2022/09/12 05:34:49;;;;;;;13.32;4.90;;;;;;;;;;4990737;28;20069;-66
2022/09/12 05:37:19;;;;;;;12.25;4.63;;;;;;;;;;4943467;28;20142;-66
2022/09/12 05:39:50;;;;;;;12.88;4.90;;;;;;;;;;4991441;28;20085;-67
2022/09/12 05:42:20;;;;;;;10.93;4.68;;;;;;;;;;5003732;28;20068;-66
2022/09/12 05:44:50;;;;;;;11.18;4.68;;;;;;;;;;5007674;28;20053;-66
2022/09/12 05:47:20;;;;;;;11.43;4.78;;;;;;;;;;4997748;28;20129;-66
2022/09/12 05:49:51;;;;;;;14.18;4.32;;;;;;;;;;5030639;28;20061;-66
2022/09/12 05:52:21;;;;;;;12.93;4.40;;;;;;;;;;5030688;28;20049;-66
2022/09/12 05:54:51;;;;;;;11.38;4.32;;;;;;;;;;5030184;28;20053;-66
2022/09/12 05:57:22;;;;;;;13.48;4.03;;;;;;;;;;5030748;28;20052;-66
2022/09/12 05:59:51;;;;;;;10.75;4.18;;;;;;;;;;5030317;28;20088;-66
2022/09/12 06:02:21;;;;;;;11.30;3.90;;;;;;;;;;4997450;28;20328;-66
2022/09/12 06:04:51;;;;;;;8.55;3.85;;;;;;;;;;4965350;28;20056;-66
2022/09/12 06:07:22;;;;;;;10.75;3.75;;;;;;;;;;4997422;28;20061;-66
2022/09/12 06:09:52;;;;;;;11.65;4.38;;;;;;;;;;4971153;28;20046;-66
2022/09/12 06:12:22;;;;;;;12.25;4.95;;;;;;;;;;4951693;28;20073;-66
2022/09/12 06:14:52;;;;;;;9.32;3.78;;;;;;;;;;4936483;28;20070;-66
2022/09/12 06:17:22;;;;;;;9.95;4.20;;;;;;;;;;4936439;28;20602;-66
2022/09/12 06:19:53;;;;;;;10.70;4.10;;;;;;;;;;4919939;28;20059;-66
2022/09/12 06:22:22;;;;;;;12.77;4.50;;;;;;;;;;4952228;28;20063;-66
2022/09/12 06:24:53;;;;;;;12.02;3.92;;;;;;;;;;4951993;28;20102;-66
2022/09/12 06:27:25;;;;;;;8.27;3.53;;;;;;;;;;4920107;29;20087;-66
2022/09/12 06:29:56;;;;;;;9.32;4.03;;;;;;;;;;4919853;29;20388;-66
2022/09/12 06:32:29;;;;;;;11.55;3.90;;;;;;;;;;4932473;29;20404;-66
2022/09/12 06:34:59;;;;;;;10.90;4.22;;;;;;;;;;4932581;29;20516;-66
2022/09/12 06:37:32;;;;;;;10.82;4.18;;;;;;;;;;4894173;29;20394;-66
2022/09/12 06:40:03;;;;;;;9.98;4.32;;;;;;;;;;4894668;29;20560;-66
2022/09/12 06:42:33;;;;;;;12.25;4.60;;;;;;;;;;4914322;29;20063;-66
2022/09/12 06:45:04;;;;;;;9.73;4.38;;;;;;;;;;4932343;29;20056;-66
2022/09/12 06:47:34;;;;;;;10.38;4.13;;;;;;;;;;4922805;29;20456;-66
2022/09/12 06:50:04;;;;;;;12.05;4.05;;;;;;;;;;4923413;29;20071;-66
2022/09/12 06:52:34;;;;;;;11.98;4.57;;;;;;;;;;4900850;29;20420;-66
2022/09/12 06:55:05;;;;;;;13.40;4.10;;;;;;;;;;4931560;29;20063;-66
2022/09/12 06:57:37;;;;;;;9.45;4.05;;;;;;;;;;4932321;29;20420;-66
2022/09/12 07:00:29;;;;;;;16.20;4.20;;;;;;;;;;4932244;29;20051;-66
2022/09/12 07:02:59;;;;;;;10.40;3.53;;;;;;;;;;4912864;29;20056;-66
2022/09/12 07:05:32;;;;;;;9.73;4.10;;;;;;;;;;4942058;29;20056;-66
2022/09/12 07:08:02;;;;;;;12.02;4.22;;;;;;;;;;4900372;29;20490;-66
2022/09/12 07:10:33;;;;;;;10.77;3.97;;;;;;;;;;4958731;28;20130;-66
2022/09/12 07:13:03;;;;;;;10.85;4.00;;;;;;;;;;4970496;28;20131;-66
2022/09/12 07:15:35;;;;;;;8.95;3.25;;;;;;;;;;4997942;28;20049;-67
2022/09/12 07:18:06;;;;;;;9.88;3.78;;;;;;;;;;5029141;28;20061;-67
2022/09/12 07:20:37;;;;;;;14.43;3.97;;;;;;;;;;4985699;28;20057;-67
2022/09/12 07:23:07;;;;;;;12.13;4.25;;;;;;;;;;4970586;28;20081;-67
2022/09/12 07:25:37;;;;;;;10.98;4.00;;;;;;;;;;4986055;28;20412;-67
2022/09/12 07:28:06;;;;;;;8.88;3.72;;;;;;;;;;4970276;28;20411;-67
2022/09/12 07:30:37;;;;;;;9.50;3.95;;;;;;;;;;4937906;28;20061;-67
2022/09/12 07:33:07;;;;;;;10.48;4.38;;;;;;;;;;4970147;28;20059;-68
2022/09/12 07:35:38;;;;;;;11.05;3.80;;;;;;;;;;4938019;28;20061;-67
2022/09/12 07:38:08;;;;;;;10.57;4.15;;;;;;;;;;4970079;28;20059;-67
2022/09/12 07:40:38;;;;;;;10.32;3.83;;;;;;;;;;4960402;28;20086;-67
2022/09/12 07:43:08;;;;;;;10.23;3.70;;;;;;;;;;4931763;29;20091;-67
2022/09/12 07:45:40;;;;;;;10.77;3.85;;;;;;;;;;4931465;29;20424;-67
2022/09/12 07:48:11;;;;;;;8.10;3.42;;;;;;;;;;4915815;29;20412;-67
2022/09/12 07:50:41;;;;;;;8.15;3.85;;;;;;;;;;4931706;29;20051;-67
2022/09/12 07:53:13;;;;;;;10.90;3.95;;;;;;;;;;4950689;28;20443;-67
2022/09/12 07:55:43;;;;;;;10.57;4.30;;;;;;;;;;4969878;28;20085;-67
2022/09/12 07:58:13;;;;;;;10.48;4.47;;;;;;;;;;4962121;28;20065;-67
2022/09/12 08:00:44;;;;;;;14.25;3.97;;;;;;;;;;4993652;28;20054;-67
2022/09/12 08:03:15;;;;;;;11.18;4.18;;;;;;;;;;4945288;28;20067;-67
2022/09/12 08:05:45;;;;;;;9.32;4.45;;;;;;;;;;4973585;28;20059;-67
2022/09/12 08:08:15;;;;;;;10.65;4.13;;;;;;;;;;4973767;28;20082;-67
2022/09/12 08:10:46;;;;;;;10.85;4.10;;;;;;;;;;4973574;28;20510;-67
2022/09/12 08:13:16;;;;;;;9.15;3.80;;;;;;;;;;5005455;28;20067;-67
2022/09/12 08:15:46;;;;;;;10.25;3.92;;;;;;;;;;4973313;28;20050;-67
2022/09/12 08:18:15;;;;;;;11.23;4.38;;;;;;;;;;4973561;28;20518;-67
2022/09/12 08:20:46;;;;;;;9.32;4.03;;;;;;;;;;4951480;28;20063;-67
2022/09/12 08:23:16;;;;;;;9.27;3.80;;;;;;;;;;4992722;28;20050;-67
2022/09/12 08:25:46;;;;;;;10.70;3.97;;;;;;;;;;4960487;28;20054;-67
2022/09/12 08:28:16;;;;;;;10.95;4.13;;;;;;;;;;4992446;28;20577;-67
2022/09/12 08:30:47;;;;;;;10.88;3.80;;;;;;;;;;4973019;28;20414;-67
2022/09/12 08:33:17;;;;;;;10.07;3.85;;;;;;;;;;4973090;28;20059;-66
2022/09/12 08:35:48;;;;;;;10.73;4.15;;;;;;;;;;4966247;28;20055;-67
2022/09/12 08:38:18;;;;;;;8.75;3.88;;;;;;;;;;4992645;28;20058;-67
2022/09/12 08:41:09;;;;;;;17.33;4.60;;;;;;;;;;4976467;28;20046;-67
2022/09/12 08:43:49;;;;;;;9.38;3.58;;;;;;;;;;4996805;28;20406;-67
2022/09/12 08:46:56;;;;;;;11.40;4.07;;;;;;;;;;5012070;28;20061;-67
2022/09/12 08:49:40;;;;;;;11.63;5.03;;;;;;;;;;4992241;28;20042;-66
2022/09/12 08:52:40;;;;;;;12.32;5.45;;;;;;;;;;4960763;28;20054;-67
2022/09/12 08:55:34;;;;;;;10.40;4.63;;;;;;;;;;4992119;28;20058;-67
2022/09/12 08:58:19;;;;;;;11.57;4.40;;;;;;;;;;4992277;28;20061;-67
2022/09/12 09:01:13;;;;;;;12.65;4.25;;;;;;;;;;4992192;28;20050;-67
2022/09/12 09:03:49;;;;;;;13.45;4.28;;;;;;;;;;4992473;28;20080;-67
2022/09/12 09:06:35;;;;;;;10.80;4.45;;;;;;;;;;4959870;28;20521;-66
2022/09/12 09:09:38;;;;;;;11.63;4.25;;;;;;;;;;5004730;28;20108;-67
2022/09/12 09:12:35;;;;;;;10.52;4.20;;;;;;;;;;5031316;28;20056;-67
2022/09/12 09:15:22;;;;;;;12.13;4.47;;;;;;;;;;5014659;28;20058;-67
2022/09/12 09:18:00;;;;;;;11.73;4.80;;;;;;;;;;5016254;28;20084;-66
2022/09/12 09:20:55;;;;;;;11.98;4.22;;;;;;;;;;5034663;28;20528;-66
2022/09/12 09:23:41;;;;;;;10.10;4.43;;;;;;;;;;5051007;28;20045;-67
2022/09/12 09:26:17;;;;;;;9.60;4.32;;;;;;;;;;5054211;28;20060;-66
2022/09/12 09:28:52;;;;;;;9.55;4.30;;;;;;;;;;5073347;28;20370;-67
2022/09/12 09:31:25;;;;;;;13.38;4.65;;;;;;;;;;5072259;28;20049;-67
2022/09/12 09:33:56;;;;;;;12.77;4.97;;;;;;;;;;5054278;28;20515;-67
2022/09/12 09:36:44;;;;;;;10.93;4.35;;;;;;;;;;5070674;28;20416;-67
2022/09/12 09:39:21;;;;;;;10.07;3.97;;;;;;;;;;5070947;28;20063;-67
2022/09/12 09:42:09;;;;;;;9.82;4.38;;;;;;;;;;5070861;28;20064;-67
2022/09/12 09:44:39;;;;;;;10.65;4.07;;;;;;;;;;5070739;28;20171;-67
2022/09/12 09:47:11;;;;;;;10.90;4.20;;;;;;;;;;5070876;28;20595;-67
2022/09/12 09:49:42;;;;;;;11.52;4.88;;;;;;;;;;5070711;28;20052;-67
2022/09/12 09:52:20;;;;;;;13.20;4.63;;;;;;;;;;5070511;28;20048;-67
2022/09/12 09:54:56;;;;;;;14.40;4.85;;;;;;;;;;5070018;28;20052;-67
2022/09/12 09:57:35;;;;;;;10.82;4.78;;;;;;;;;;5070317;28;20049;-67
2022/09/12 10:00:31;;;;;;;12.10;4.55;;;;;;;;;;5070607;28;20072;-67
2022/09/12 10:03:13;;;;;;;12.98;5.07;;;;;;;;;;5070449;28;20044;-67
2022/09/12 10:05:52;;;;;;;10.00;4.13;;;;;;;;;;5070356;28;20055;-67
2022/09/12 10:08:28;;;;;;;12.60;4.68;;;;;;;;;;5053635;28;20056;-67
2022/09/12 10:11:16;;;;;;;12.60;5.63;;;;;;;;;;5036911;28;20057;-67
2022/09/12 10:14:00;;;;;;;15.65;5.60;;;;;;;;;;5020768;28;20056;-67
2022/09/12 10:16:52;;;;;;;13.15;5.00;;;;;;;;;;5050128;28;20060;-66
2022/09/12 10:19:38;;;;;;;12.55;5.45;;;;;;;;;;5018890;28;20099;-67
2022/09/12 10:22:19;;;;;;;12.85;5.05;;;;;;;;;;5050155;28;20048;-67
2022/09/12 10:24:56;;;;;;;11.90;5.38;;;;;;;;;;5017841;28;20183;-67
2022/09/12 10:27:33;;;;;;;15.05;5.85;;;;;;;;;;5049870;28;20052;-67
2022/09/12 10:30:16;;;;;;;12.40;5.53;;;;;;;;;;5033743;28;20049;-67
2022/09/12 10:32:50;;;;;;;10.50;4.63;;;;;;;;;;5049885;28;20053;-66
2022/09/12 10:35:41;;;;;;;15.57;5.40;;;;;;;;;;5025891;28;20053;-67
2022/09/12 10:38:22;;;;;;;14.05;5.13;;;;;;;;;;5026269;28;20050;-67
2022/09/12 10:41:02;;;;;;;14.43;6.32;;;;;;;;;;5009864;28;20449;-67
2022/09/12 10:43:39;;;;;;;15.90;5.50;;;;;;;;;;5010102;28;20065;-67
2022/09/12 10:46:15;;;;;;;12.57;5.13;;;;;;;;;;4993590;28;20097;-67
2022/09/12 10:48:51;;;;;;;12.98;6.28;;;;;;;;;;5026253;28;20084;-67
2022/09/12 10:51:24;;;;;;;14.77;6.30;;;;;;;;;;5028438;28;20053;-67
2022/09/12 10:53:59;;;;;;;16.23;7.07;;;;;;;;;;5029004;28;20041;-67
2022/09/12 10:56:37;;;;;;;13.65;6.63;;;;;;;;;;5045230;28;20049;-67
2022/09/12 10:59:26;;;;;;;14.52;6.35;;;;;;;;;;5029080;28;20060;-67
2022/09/12 11:02:27;;;;;;;15.65;7.38;;;;;;;;;;5029377;28;20046;-67
2022/09/12 11:05:04;;;;;;;15.27;6.93;;;;;;;;;;5009673;28;20058;-67
2022/09/12 11:07:46;;;;;;;15.05;6.15;;;;;;;;;;5009441;28;20458;-67
2022/09/12 11:10:22;;;;;;;14.70;5.90;;;;;;;;;;4989487;28;20057;-67
2022/09/12 11:12:58;;;;;;;13.65;6.13;;;;;;;;;;4926920;29;20056;-67
2022/09/12 11:15:59;;;;;;;13.02;6.25;;;;;;;;;;4931713;29;20532;-67
2022/09/12 11:19:02;;;;;;;13.32;6.25;;;;;;;;;;4908396;29;20072;-67
2022/09/12 11:21:38;;;;;;;14.45;6.03;;;;;;;;;;4874905;29;20067;-67
2022/09/12 11:24:43;;;;;;;16.17;6.40;;;;;;;;;;4875513;29;20061;-67
2022/09/12 11:27:55;;;;;;;13.70;5.82;;;;;;;;;;4838537;29;20093;-67
2022/09/12 11:30:26;;;;;;;14.18;5.55;;;;;;;;;;4819902;29;20062;-67
2022/09/12 11:33:23;;;;;;;11.98;5.88;;;;;;;;;;4801479;29;20055;-67
2022/09/12 11:35:56;;;;;;;13.50;5.70;;;;;;;;;;4806260;29;20485;-68
2022/09/12 11:38:57;;;;;;;11.68;4.88;;;;;;;;;;4838201;29;20411;-68
2022/09/12 11:41:35;;;;;;;18.63;7.30;;;;;;;;;;4862429;29;20138;-67
2022/09/12 11:44:15;;;;;;;13.07;5.82;;;;;;;;;;4912950;29;20064;-68
2022/09/12 11:46:46;;;;;;;11.90;5.53;;;;;;;;;;4912514;29;20076;-67
2022/09/12 11:49:33;;;;;;;17.13;7.85;;;;;;;;;;4899472;29;20133;-67
2022/09/12 11:52:39;;;;;;;13.30;5.90;;;;;;;;;;4941466;28;20055;-68
2022/09/12 11:55:19;;;;;;;11.35;5.13;;;;;;;;;;4894959;29;20060;-67
2022/09/12 11:57:59;;;;;;;13.65;5.78;;;;;;;;;;4865575;29;20412;-68
2022/09/12 12:00:55;;;;;;;14.27;5.47;;;;;;;;;;4864786;29;20045;-68
2022/09/12 12:03:45;;;;;;;12.82;5.38;;;;;;;;;;4861846;29;20445;-68
2022/09/12 12:06:44;;;;;;;12.25;5.57;;;;;;;;;;4847353;29;20071;-68
2022/09/12 12:09:16;;;;;;;11.55;5.30;;;;;;;;;;4855952;29;20060;-67
2022/09/12 12:11:54;;;;;;;14.20;5.90;;;;;;;;;;4856315;29;20078;-68
2022/09/12 12:14:37;;;;;;;13.98;6.05;;;;;;;;;;4810358;29;20057;-69
2022/09/12 12:17:18;;;;;;;16.58;6.32;;;;;;;;;;4856286;29;20057;-69
2022/09/12 12:20:04;;;;;;;14.18;6.35;;;;;;;;;;4804912;29;20518;-68
2022/09/12 12:22:37;;;;;;;13.48;6.32;;;;;;;;;;4816828;29;20078;-68
2022/09/12 12:25:24;;;;;;;14.52;5.75;;;;;;;;;;4833471;29;20065;-68
2022/09/12 12:28:05;;;;;;;13.82;6.10;;;;;;;;;;4837665;29;20058;-68
2022/09/12 12:30:35;;;;;;;16.67;6.75;;;;;;;;;;4855522;29;21327;-68
2022/09/12 12:33:14;;;;;;;16.35;6.63;;;;;;;;;;4878458;29;20060;-68
2022/09/12 12:36:00;;;;;;;;;;;;;;;;;;4893574;29;20057;-68
2022/09/12 12:38:30;;;;;;;14.60;5.88;;;;;;;;;;4931005;29;19929;-70
2022/09/12 12:41:18;;;;;;;15.93;6.72;;;;;;;;;;4950256;29;20487;-69
2022/09/12 12:43:55;;;;;;;15.10;6.57;;;;;;;;;;4951680;28;20055;-70
2022/09/12 12:46:26;;;;;;;16.20;6.10;;;;;;;;;;4965255;28;20066;-69
2022/09/12 12:49:25;;;;;;;14.30;6.47;;;;;;;;;;4959802;28;20130;-69
2022/09/12 12:52:02;;;;;;;15.38;6.78;;;;;;;;;;4975780;28;20058;-70
2022/09/12 12:54:34;;;;;;;15.60;6.05;;;;;;;;;;4992002;28;20449;-69
2022/09/12 12:57:29;;;;;;;13.90;5.93;;;;;;;;;;5012420;28;20107;-71
2022/09/12 13:00:08;;;;;;;13.80;5.63;;;;;;;;;;5031511;28;20506;-69
2022/09/12 13:02:49;;;;;;;17.08;6.82;;;;;;;;;;5031079;28;20425;-70
2022/09/12 13:05:23;;;;;;;19.05;6.68;;;;;;;;;;5011366;28;20045;-71
2022/09/12 13:08:09;;;;;;;16.48;6.43;;;;;;;;;;4953031;28;20055;-70
2022/09/12 13:10:50;;;;;;;14.32;6.57;;;;;;;;;;4937311;29;20575;-71
2022/09/12 13:13:45;;;;;;;17.70;7.00;;;;;;;;;;4953143;28;20059;-71
2022/09/12 13:16:38;;;;;;;19.02;7.03;;;;;;;;;;4952775;28;20161;-71
2022/09/12 13:19:15;;;;;;;19.55;8.23;;;;;;;;;;4952962;28;20055;-70
2022/09/12 13:21:58;;;;;;;19.00;9.35;;;;;;;;;;4952781;28;20058;-70
2022/09/12 13:24:29;;;;;;;17.42;7.80;;;;;;;;;;4968401;28;20491;-70
2022/09/12 13:27:01;;;;;;;21.27;10.88;;;;;;;;;;4952695;28;20059;-70
2022/09/12 13:29:31;;;;;;;20.17;9.88;;;;;;;;;;4952589;28;20055;-70
2022/09/12 13:32:02;;;;;;;18.60;7.50;;;;;;;;;;4952802;28;20066;-69
2022/09/12 13:35:01;;;;;;;17.40;6.63;;;;;;;;;;4952336;28;20420;-69
2022/09/12 13:37:54;;;;;;;15.23;6.65;;;;;;;;;;4977643;28;20069;-70
2022/09/12 13:40:35;;;;;;;18.13;7.70;;;;;;;;;;4991284;28;20046;-69
2022/09/12 13:43:14;;;;;;;17.42;7.63;;;;;;;;;;5012741;28;20046;-70
2022/09/12 13:45:46;;;;;;;15.45;6.00;;;;;;;;;;5046193;28;20056;-70
2022/09/12 13:48:24;;;;;;;15.77;7.57;;;;;;;;;;5072651;28;20064;-69
2022/09/12 13:51:00;;;;;;;17.65;7.53;;;;;;;;;;5054297;28;20057;-71
2022/09/12 13:53:44;;;;;;;16.98;7.28;;;;;;;;;;5053556;28;20045;-71
2022/09/12 13:56:17;;;;;;;17.63;7.75;;;;;;;;;;5035832;28;20053;-70
2022/09/12 13:58:56;;;;;;;18.95;8.57;;;;;;;;;;5054190;28;20048;-69
2022/09/12 14:01:39;;;;;;;;;;;;;;;;;;5082645;28;20048;-70
2022/09/12 14:07:20;;;;;;;16.98;7.43;;;;;;;;;;5090517;28;20044;-70
2022/09/12 14:09:58;;;;;;;17.48;7.38;;;;;;;;;;5090190;28;20060;-70
2022/09/12 14:12:42;;;;;;;16.15;7.10;;;;;;;;;;5052843;28;20420;-68
2022/09/12 14:15:23;;;;;;;18.08;8.00;;;;;;;;;;5018344;28;20064;-69
2022/09/12 14:17:58;;;;;;;17.40;7.88;;;;;;;;;;5049889;28;20060;-69
2022/09/12 14:20:32;;;;;;;17.08;7.20;;;;;;;;;;5050204;28;20041;-69
2022/09/12 14:23:13;;;;;;;20.92;8.38;;;;;;;;;;5032900;28;20051;-68
2022/09/12 14:25:46;;;;;;;17.77;8.13;;;;;;;;;;5000893;28;20055;-69
2022/09/12 14:28:18;;;;;;;17.67;7.90;;;;;;;;;;5028425;28;20053;-70
2022/09/12 14:31:25;;;;;;;18.00;7.65;;;;;;;;;;5070222;28;20567;-70
2022/09/12 14:34:17;;;;;;;19.35;8.25;;;;;;;;;;5013428;28;20056;-69
2022/09/12 14:36:53;;;;;;;20.02;8.02;;;;;;;;;;5029632;28;20060;-70
2022/09/12 14:39:40;;;;;;;19.20;8.23;;;;;;;;;;5029412;28;20049;-70
2022/09/12 14:42:21;;;;;;;16.83;7.72;;;;;;;;;;5012836;28;20053;-70
2022/09/12 14:45:21;;;;;;;17.40;7.55;;;;;;;;;;5029511;28;20433;-70
2022/09/12 14:47:52;;;;;;;19.20;8.70;;;;;;;;;;4961451;28;20049;-69
2022/09/12 14:50:26;;;;;;;19.33;7.95;;;;;;;;;;4960958;28;20050;-69
2022/09/12 14:53:07;;;;;;;20.42;8.68;;;;;;;;;;5009440;28;20061;-70
2022/09/12 14:55:53;;;;;;;18.17;8.52;;;;;;;;;;5009454;28;20514;-69
2022/09/12 14:58:25;;;;;;;17.90;8.50;;;;;;;;;;5008814;28;20061;-69
2022/09/12 15:01:22;;;;;;;20.88;8.48;;;;;;;;;;5009322;28;20050;-69
2022/09/12 15:03:54;;;;;;;20.75;8.57;;;;;;;;;;4954729;28;20055;-69
2022/09/12 15:06:31;;;;;;;22.08;8.85;;;;;;;;;;4954852;28;20425;-69
2022/09/12 15:09:07;;;;;;;23.00;9.13;;;;;;;;;;4970411;28;20396;-69
2022/09/12 15:11:38;;;;;;;17.90;8.38;;;;;;;;;;4919116;29;20451;-67
2022/09/12 15:14:15;;;;;;;19.55;9.15;;;;;;;;;;4951122;29;20058;-70
2022/09/12 15:16:46;;;;;;;20.17;8.85;;;;;;;;;;4977616;28;20050;-70
2022/09/12 15:19:16;;;;;;;18.10;8.13;;;;;;;;;;5003166;28;20054;-70
2022/09/12 15:21:47;;;;;;;19.90;8.75;;;;;;;;;;4993218;28;20060;-71
2022/09/12 15:24:17;;;;;;;20.35;8.65;;;;;;;;;;5009432;28;20050;-70
2022/09/12 15:26:47;;;;;;;21.70;8.82;;;;;;;;;;5009275;28;20062;-71
2022/09/12 15:29:17;;;;;;;21.95;9.00;;;;;;;;;;4989348;28;20061;-69
2022/09/12 15:31:50;;;;;;;20.40;8.75;;;;;;;;;;4989686;28;20506;-75
2022/09/12 15:34:21;;;;;;;19.15;8.55;;;;;;;;;;4989449;28;20054;-72
2022/09/12 15:36:51;;;;;;;20.80;8.95;;;;;;;;;;4989449;28;20038;-71
2022/09/12 15:39:21;;;;;;;19.15;8.70;;;;;;;;;;4989318;28;20581;-70